Time;durP1;ratioP1;P1;durP2;ratioP2;P2;SDS_P1;SDS_P2;PMS_P1;PMS_P2;Temp;Humidity;BMP_temperature;BMP_pressure;BME280_temperature;BME280_humidity;BME280_pressure;Samples;Min_cycle;Max_cycle;Signal;HPM_P1;HPM_P2
2022/11/28 00:03:15;;;;;;;108.20;52.27;;;0.70;99.90;;;;;;10456093;22;20084;-82
2022/11/28 00:08:15;;;;;;;108.93;53.20;;;0.90;99.90;;;;;;10440160;28;20457;-81
2022/11/28 00:13:16;;;;;;;110.60;49.73;;;1.00;99.90;;;;;;10441158;28;20064;-83
2022/11/28 00:18:16;;;;;;;111.43;53.10;;;1.10;99.90;;;;;;10440697;28;20672;-82
2022/11/28 00:23:17;;;;;;;116.60;55.57;;;1.20;99.90;;;;;;10440879;28;20035;-83
2022/11/28 00:28:18;;;;;;;110.40;53.53;;;1.20;99.90;;;;;;10439438;28;20560;-82
2022/11/28 00:33:18;;;;;;;112.80;53.83;;;1.20;99.90;;;;;;10441163;28;20431;-82
2022/11/28 00:38:19;;;;;;;103.30;55.07;;;1.20;99.90;;;;;;10440865;28;20032;-87
2022/11/28 00:43:19;;;;;;;117.30;57.37;;;1.30;99.90;;;;;;10439958;28;20037;-85
2022/11/28 00:48:20;;;;;;;96.80;44.97;;;1.30;99.90;;;;;;10442105;28;20403;-82
2022/11/28 00:53:21;;;;;;;89.77;44.50;;;1.40;99.90;;;;;;10420698;28;20041;-87
2022/11/28 00:58:21;;;;;;;88.87;42.67;;;1.40;99.90;;;;;;10421359;28;20123;-82
2022/11/28 01:03:22;;;;;;;83.83;40.83;;;1.40;99.90;;;;;;10439158;28;20045;-87
2022/11/28 01:08:22;;;;;;;89.90;42.37;;;1.40;99.90;;;;;;10439264;28;20374;-86
2022/11/28 01:13:23;;;;;;;89.50;45.33;;;1.40;99.90;;;;;;10419727;28;20575;-88
2022/11/28 01:18:24;;;;;;;88.60;42.37;;;1.50;99.90;;;;;;10437999;28;20076;-86
2022/11/28 01:23:25;;;;;;;87.90;42.90;;;1.40;99.90;;;;;;10438485;28;20792;-83
2022/11/28 01:28:25;;;;;;;87.13;40.47;;;1.50;99.90;;;;;;10437855;28;20033;-88
2022/11/28 01:33:26;;;;;;;89.47;41.77;;;1.50;99.90;;;;;;10418974;28;20045;-86
2022/11/28 01:38:27;;;;;;;75.20;35.17;;;1.40;99.90;;;;;;10437863;28;20032;-85
2022/11/28 01:43:27;;;;;;;56.07;27.37;;;1.40;99.90;;;;;;10437742;28;20440;-82
2022/11/28 01:48:36;;;;;;;60.33;30.97;;;1.30;99.90;;;;;;10438927;28;20025;-86
2022/11/28 01:53:41;;;;;;;76.40;35.43;;;1.40;99.90;;;;;;10436951;28;20069;-83
2022/11/28 01:58:45;;;;;;;76.37;34.47;;;1.50;99.90;;;;;;10437952;28;20040;-84
2022/11/28 02:03:48;;;;;;;72.93;34.00;;;1.40;99.90;;;;;;10437637;28;20067;-87
2022/11/28 02:08:51;;;;;;;70.63;33.13;;;1.50;99.90;;;;;;10437735;28;20420;-83
2022/11/28 02:14:18;;;;;;;64.63;31.23;;;1.50;99.90;;;;;;10436429;28;20052;-82
2022/11/28 02:19:40;;;;;;;54.17;27.47;;;1.50;99.90;;;;;;10435915;28;20119;-85
2022/11/28 02:24:59;;;;;;;54.50;24.93;;;1.50;99.90;;;;;;10440053;28;20079;-87
2022/11/28 02:30:21;;;;;;;54.73;24.80;;;1.50;99.90;;;;;;10443666;28;20052;-84
2022/11/28 02:35:52;;;;;;;57.40;26.57;;;1.60;99.90;;;;;;10424862;28;20048;-82
2022/11/28 02:41:14;;;;;;;58.87;27.80;;;1.60;99.90;;;;;;10399802;28;20123;-83
2022/11/28 02:46:20;;;;;;;58.83;28.87;;;1.70;99.90;;;;;;10442277;28;20447;-84
2022/11/28 02:51:25;;;;;;;62.93;29.43;;;1.70;99.90;;;;;;10445695;28;20056;-84
2022/11/28 02:56:25;;;;;;;56.83;28.53;;;1.80;99.90;;;;;;10443874;28;20118;-87
2022/11/28 03:01:36;;;;;;;61.90;30.07;;;1.70;99.90;;;;;;10445578;28;20127;-84
2022/11/28 03:07:15;;;;;;;53.20;24.27;;;1.70;99.90;;;;;;10444957;28;20703;-87
2022/11/28 03:12:25;;;;;;;54.23;24.70;;;1.80;99.90;;;;;;10445035;28;20028;-85
2022/11/28 03:17:50;;;;;;;62.80;29.60;;;1.80;99.90;;;;;;10443615;28;20051;-87
2022/11/28 03:23:08;;;;;;;56.37;28.50;;;1.80;99.90;;;;;;10443921;28;20040;-84
2022/11/28 03:28:32;;;;;;;57.50;27.90;;;1.80;99.90;;;;;;10437276;28;20539;-82
2022/11/28 03:33:39;;;;;;;53.10;26.43;;;1.70;99.90;;;;;;10384339;28;20049;-81
2022/11/28 03:38:44;;;;;;;59.20;28.60;;;1.70;99.90;;;;;;10440510;28;20469;-87
2022/11/28 03:43:53;;;;;;;55.43;27.33;;;1.70;99.90;;;;;;10441926;28;20103;-82
2022/11/28 03:48:57;;;;;;;67.30;31.57;;;1.80;99.90;;;;;;10442301;28;20025;-87
2022/11/28 03:54:16;;;;;;;65.57;33.17;;;1.80;99.90;;;;;;10440921;28;20044;-84
2022/11/28 03:59:34;;;;;;;63.73;31.83;;;1.80;99.90;;;;;;10435692;28;20057;-81
2022/11/28 04:04:50;;;;;;;60.53;30.50;;;1.90;99.90;;;;;;10441716;28;20462;-82
2022/11/28 04:10:08;;;;;;;33.40;17.75;;;2.00;99.90;;;;;;10437509;28;20036;-82
2022/11/28 04:15:18;;;;;;;47.33;22.43;;;2.00;99.90;;;;;;10438835;28;20047;-85
2022/11/28 04:20:40;;;;;;;45.87;23.03;;;2.10;99.90;;;;;;10437481;28;20028;-82
2022/11/28 04:25:49;;;;;;;48.30;22.63;;;2.00;99.90;;;;;;10420325;28;20358;-84
2022/11/28 04:30:53;;;;;;;45.47;21.30;;;2.10;99.90;;;;;;10438502;28;20025;-83
2022/11/28 04:35:55;;;;;;;45.77;21.10;;;2.10;99.90;;;;;;10439514;28;20041;-83
2022/11/28 04:41:03;;;;;;;44.30;21.10;;;2.10;99.90;;;;;;10437503;28;20033;-82
2022/11/28 04:46:11;;;;;;;43.17;20.47;;;2.10;99.90;;;;;;10435172;28;20476;-84
2022/11/28 04:51:23;;;;;;;50.43;23.57;;;2.20;99.90;;;;;;10438924;28;20102;-81
2022/11/28 04:56:32;;;;;;;53.67;24.33;;;2.20;99.90;;;;;;10438377;28;20079;-82
2022/11/28 05:01:34;;;;;;;53.30;24.93;;;2.20;99.90;;;;;;10439697;28;20486;-82
2022/11/28 05:06:35;;;;;;;48.93;24.43;;;2.20;99.90;;;;;;10439165;28;20025;-84
2022/11/28 05:11:36;;;;;;;47.67;23.03;;;2.10;99.90;;;;;;10439261;28;20037;-82
2022/11/28 05:16:37;;;;;;;53.87;23.00;;;2.10;99.90;;;;;;10437609;28;20427;-83
2022/11/28 05:21:37;;;;;;;48.17;23.50;;;2.10;99.90;;;;;;10435163;28;20091;-82
2022/11/28 05:26:38;;;;;;;50.20;22.57;;;2.10;99.90;;;;;;10438391;28;20553;-85
2022/11/28 05:31:38;;;;;;;54.93;26.47;;;2.10;99.90;;;;;;10439564;28;20040;-82
2022/11/28 05:36:39;;;;;;;56.77;26.67;;;2.00;99.90;;;;;;10440757;28;20220;-84
2022/11/28 05:41:39;;;;;;;59.83;27.87;;;2.00;99.90;;;;;;10435094;28;20037;-86
2022/11/28 05:46:40;;;;;;;51.53;24.83;;;2.00;99.90;;;;;;10441094;28;20076;-82
2022/11/28 05:51:40;;;;;;;55.77;26.37;;;2.00;99.90;;;;;;10440788;28;20029;-85
2022/11/28 05:56:41;;;;;;;62.37;29.33;;;2.00;99.90;;;;;;10441402;28;20041;-87
2022/11/28 06:01:42;;;;;;;60.17;28.60;;;2.00;99.90;;;;;;10447002;28;20061;-82
2022/11/28 06:06:42;;;;;;;58.87;29.77;;;2.00;99.90;;;;;;10449561;28;20029;-82
2022/11/28 06:11:43;;;;;;;59.30;30.40;;;2.00;99.90;;;;;;10431142;28;20385;-81
2022/11/28 06:16:43;;;;;;;58.93;30.37;;;2.00;99.90;;;;;;10448289;28;20041;-85
2022/11/28 06:21:44;;;;;;;52.77;28.10;;;2.00;99.90;;;;;;10448519;28;20025;-88
2022/11/28 06:26:45;;;;;;;63.37;31.00;;;2.10;99.90;;;;;;10448357;28;20024;-82
2022/11/28 06:31:46;;;;;;;66.40;31.47;;;2.10;99.90;;;;;;10448081;28;20087;-81
2022/11/28 06:36:46;;;;;;;73.37;34.80;;;2.10;99.90;;;;;;10446627;28;20102;-81
2022/11/28 06:41:47;;;;;;;84.07;40.43;;;2.20;99.90;;;;;;10448122;28;20032;-82
2022/11/28 06:46:47;;;;;;;78.03;39.97;;;2.20;99.90;;;;;;10448409;28;20033;-86
2022/11/28 06:51:48;;;;;;;71.67;36.67;;;2.30;99.90;;;;;;10447104;28;20473;-84
2022/11/28 06:56:48;;;;;;;61.43;29.30;;;2.30;99.90;;;;;;10428596;28;20063;-83
2022/11/28 07:01:49;;;;;;;60.27;30.27;;;2.30;99.90;;;;;;10447117;28;20500;-81
2022/11/28 07:06:49;;;;;;;82.43;37.00;;;2.40;99.90;;;;;;10428868;28;20021;-84
2022/11/28 07:11:50;;;;;;;70.30;32.60;;;2.40;99.90;;;;;;10445100;28;20033;-81
2022/11/28 07:16:50;;;;;;;65.90;31.10;;;2.40;99.90;;;;;;10446596;28;20066;-82
2022/11/28 07:21:51;;;;;;;59.50;29.27;;;2.50;99.90;;;;;;10446349;28;20819;-82
2022/11/28 07:26:51;;;;;;;72.83;36.30;;;2.60;99.90;;;;;;10445886;28;20025;-82
2022/11/28 07:31:52;;;;;;;75.77;38.70;;;2.70;99.90;;;;;;10446083;28;20391;-86
2022/11/28 07:36:52;;;;;;;245.10;94.60;;;2.70;99.90;;;;;;10445512;28;20037;-82
2022/11/28 07:41:53;;;;;;;176.23;71.10;;;2.70;99.90;;;;;;10446299;28;20024;-84
2022/11/28 07:46:53;;;;;;;111.70;48.93;;;2.80;99.90;;;;;;10427403;28;20029;-85
2022/11/28 07:51:54;;;;;;;276.20;118.87;;;2.90;99.90;;;;;;10445415;28;20817;-82
2022/11/28 07:56:55;;;;;;;130.97;64.70;;;3.00;99.90;;;;;;10444812;28;20179;-86
2022/11/28 08:01:55;;;;;;;176.17;81.87;;;3.10;99.90;;;;;;10444967;28;20194;-83
2022/11/28 08:06:56;;;;;;;217.37;109.47;;;3.20;99.90;;;;;;10444421;28;20040;-82
2022/11/28 08:11:57;;;;;;;201.03;90.07;;;3.20;99.90;;;;;;10444490;28;20036;-82
2022/11/28 08:16:57;;;;;;;95.77;49.37;;;3.30;99.90;;;;;;10443828;28;20037;-82
2022/11/28 08:21:58;;;;;;;162.13;72.57;;;3.40;99.90;;;;;;10444009;28;20032;-83
2022/11/28 08:26:59;;;;;;;95.37;50.73;;;3.40;99.90;;;;;;10426175;28;20028;-83
2022/11/28 08:31:59;;;;;;;94.00;53.10;;;3.50;99.90;;;;;;10443317;28;20025;-85
2022/11/28 08:37:00;;;;;;;86.70;45.47;;;3.50;99.90;;;;;;10444048;28;20041;-82
2022/11/28 08:42:00;;;;;;;92.40;47.87;;;3.60;99.90;;;;;;10443234;28;20028;-85
2022/11/28 08:47:01;;;;;;;63.10;31.80;;;3.70;99.90;;;;;;10443565;28;20485;-83
2022/11/28 08:52:02;;;;;;;67.07;30.90;;;3.70;99.90;;;;;;10442622;28;20690;-85
2022/11/28 08:57:03;;;;;;;58.10;31.90;;;3.80;99.90;;;;;;10442495;28;20043;-82
2022/11/28 09:02:03;;;;;;;110.53;53.10;;;3.80;99.90;;;;;;10442661;28;20060;-85
2022/11/28 09:07:04;;;;;;;203.37;99.20;;;3.90;99.90;;;;;;10442208;28;20039;-86
2022/11/28 09:12:05;;;;;;;106.83;61.03;;;3.90;99.90;;;;;;10442627;28;20032;-83
2022/11/28 09:17:05;;;;;;;137.93;59.17;;;4.00;99.90;;;;;;10424131;28;20052;-82
2022/11/28 09:22:06;;;;;;;60.30;29.10;;;4.00;99.90;;;;;;10442347;28;20029;-82
2022/11/28 09:27:07;;;;;;;57.07;28.13;;;4.10;99.90;;;;;;10424253;28;20101;-82
2022/11/28 09:32:07;;;;;;;78.33;37.87;;;4.10;99.90;;;;;;10435351;28;20037;-83
2022/11/28 09:37:08;;;;;;;78.63;41.33;;;4.10;99.90;;;;;;10448653;28;20581;-88
2022/11/28 09:42:17;;;;;;;74.13;35.80;;;4.20;99.90;;;;;;10450066;28;20017;-82
2022/11/28 09:47:27;;;;;;;60.63;34.50;;;4.20;99.90;;;;;;10450384;28;20039;-83
2022/11/28 09:52:39;;;;;;;70.03;33.10;;;4.20;99.90;;;;;;10449536;28;20503;-83
2022/11/28 09:57:45;;;;;;;104.63;43.80;;;4.30;99.90;;;;;;10449652;28;20041;-82
2022/11/28 10:02:58;;;;;;;80.63;49.35;;;4.40;99.90;;;;;;10449557;28;20079;-86
2022/11/28 10:08:43;;;;;;;67.43;37.80;;;4.40;99.90;;;;;;10449052;28;20684;-83
2022/11/28 10:13:59;;;;;;;55.97;32.53;;;4.50;99.90;;;;;;10438625;28;20055;-82
2022/11/28 10:19:04;;;;;;;71.97;38.40;;;4.50;99.90;;;;;;10448639;28;20043;-83
2022/11/28 10:24:14;;;;;;;58.03;31.47;;;4.70;99.90;;;;;;10448121;28;20112;-87
2022/11/28 10:29:32;;;;;;;119.93;50.93;;;4.80;99.90;;;;;;10448458;28;20021;-83
2022/11/28 10:34:40;;;;;;;90.57;40.93;;;4.80;99.90;;;;;;10430349;28;20580;-87
2022/11/28 10:39:47;;;;;;;190.07;67.73;;;4.80;99.90;;;;;;10430175;28;20119;-82
2022/11/28 10:44:56;;;;;;;94.87;40.67;;;4.80;99.90;;;;;;10447621;28;20035;-86
2022/11/28 10:50:09;;;;;;;64.37;31.20;;;4.80;99.90;;;;;;10448009;28;20087;-83
2022/11/28 10:55:39;;;;;;;78.63;46.30;;;4.80;99.90;;;;;;10447261;28;20045;-83
2022/11/28 11:00:44;;;;;;;78.70;38.13;;;4.90;99.90;;;;;;10435499;28;20060;-88
2022/11/28 11:05:44;;;;;;;108.07;49.20;;;4.90;99.90;;;;;;10446349;28;20028;-83
2022/11/28 11:10:55;;;;;;;108.33;58.73;;;5.10;99.90;;;;;;10447161;28;20040;-82
2022/11/28 11:16:05;;;;;;;198.83;94.23;;;5.20;99.90;;;;;;10428863;28;20033;-83
2022/11/28 11:21:25;;;;;;;138.43;64.37;;;5.30;99.90;;;;;;10446673;28;20115;-86
2022/11/28 11:26:36;;;;;;;84.93;47.10;;;5.30;99.90;;;;;;10446288;28;20025;-83
2022/11/28 11:31:43;;;;;;;67.30;36.07;;;5.30;99.90;;;;;;10428095;28;20045;-83
2022/11/28 11:36:44;;;;;;;80.37;38.10;;;5.30;99.90;;;;;;10445399;28;20036;-84
2022/11/28 11:42:07;;;;;;;62.07;32.53;;;5.40;99.90;;;;;;10446219;28;20029;-83
2022/11/28 11:47:09;;;;;;;45.60;25.10;;;5.40;99.90;;;;;;10445749;28;20044;-84
2022/11/28 11:52:24;;;;;;;56.57;29.43;;;5.50;99.90;;;;;;10444891;28;20121;-83
2022/11/28 11:57:36;;;;;;;65.17;42.07;;;5.50;99.90;;;;;;10444807;28;20037;-83
2022/11/28 12:02:51;;;;;;;56.37;31.10;;;5.60;99.90;;;;;;10444269;28;20491;-86
2022/11/28 12:08:15;;;;;;;52.17;30.55;;;5.60;99.90;;;;;;10444916;28;20021;-84
2022/11/28 12:13:21;;;;;;;35.20;19.67;;;5.60;99.90;;;;;;10444845;28;20358;-83
2022/11/28 12:18:24;;;;;;;63.63;34.67;;;5.70;99.90;;;;;;10425885;28;20055;-81
2022/11/28 12:23:48;;;;;;;51.07;29.73;;;5.70;99.90;;;;;;10425520;28;20029;-84
2022/11/28 12:29:22;;;;;;;49.17;25.57;;;5.80;99.90;;;;;;10443575;28;20131;-83
2022/11/28 12:34:40;;;;;;;37.80;18.83;;;5.80;99.90;;;;;;10444717;28;20051;-85
2022/11/28 12:40:12;;;;;;;49.10;23.80;;;5.80;99.90;;;;;;10425972;28;20393;-83
2022/11/28 12:45:39;;;;;;;92.67;60.00;;;5.80;99.90;;;;;;10425310;28;20136;-84
2022/11/28 12:50:42;;;;;;;;;;;5.70;99.90;;;;;;10433941;28;20033;-83
2022/11/28 12:56:11;;;;;;;64.53;28.63;;;5.70;99.90;;;;;;10442862;28;19942;-83
2022/11/28 13:01:49;;;;;;;53.63;23.73;;;5.70;99.90;;;;;;10442939;28;20718;-86
2022/11/28 13:06:55;;;;;;;56.27;26.53;;;5.70;99.90;;;;;;10442206;28;20082;-83
2022/11/28 13:12:11;;;;;;;59.93;28.53;;;5.80;99.90;;;;;;10442427;28;20119;-83
2022/11/28 13:17:42;;;;;;;46.17;25.65;;;5.80;99.90;;;;;;10442552;28;20362;-84
2022/11/28 13:22:59;;;;;;;44.97;22.43;;;5.80;99.90;;;;;;10443033;28;20025;-82
2022/11/28 13:28:27;;;;;;;50.27;24.40;;;5.70;99.90;;;;;;10440134;28;20080;-84
2022/11/28 13:33:46;;;;;;;69.23;36.53;;;5.70;99.90;;;;;;10441416;28;20392;-86
2022/11/28 13:39:11;;;;;;;77.47;37.30;;;5.70;99.90;;;;;;10435173;28;20025;-81
2022/11/28 13:44:27;;;;;;;75.43;32.50;;;5.70;99.90;;;;;;10440852;28;20028;-81
2022/11/28 13:49:29;;;;;;;76.28;28.17;;;5.50;99.90;;;;;;10422820;28;20457;-85
2022/11/28 13:54:33;;;;;;;109.30;45.17;;;5.50;99.90;;;;;;10422580;28;20045;-82
2022/11/28 13:59:34;;;;;;;440.53;238.60;;;5.40;99.90;;;;;;10440022;28;20056;-83
2022/11/28 14:04:43;;;;;;;447.77;229.40;;;5.40;99.90;;;;;;10440733;28;20066;-82
2022/11/28 14:10:13;;;;;;;391.60;195.53;;;5.30;99.90;;;;;;10440124;28;20041;-86
2022/11/28 14:15:14;;;;;;;56.90;34.87;;;5.30;99.90;;;;;;10439579;28;20053;-85
2022/11/28 14:20:41;;;;;;;43.40;26.80;;;5.30;99.90;;;;;;10455472;28;20123;-83
2022/11/28 14:25:45;;;;;;;62.87;42.73;;;5.20;99.90;;;;;;10429190;28;20033;-83
2022/11/28 14:30:47;;;;;;;45.33;30.07;;;5.00;99.90;;;;;;10429950;28;20052;-85
2022/11/28 14:35:53;;;;;;;57.63;40.13;;;4.70;99.90;;;;;;10447454;28;20128;-81
2022/11/28 14:40:54;;;;;;;69.03;49.17;;;4.60;99.90;;;;;;10447352;28;20055;-82
2022/11/28 14:46:22;;;;;;;34.70;19.20;;;4.40;99.90;;;;;;10428691;28;20044;-83
2022/11/28 14:51:48;;;;;;;45.53;28.97;;;4.10;99.90;;;;;;10422600;28;20055;-82
2022/11/28 14:56:50;;;;;;;38.20;21.30;;;3.90;99.90;;;;;;10428470;28;20045;-83
2022/11/28 15:02:11;;;;;;;37.23;17.27;;;3.80;99.90;;;;;;10443091;28;20056;-87
2022/11/28 15:07:42;;;;;;;35.70;18.90;;;3.70;99.90;;;;;;10441523;28;20044;-83
2022/11/28 15:13:10;;;;;;;37.40;21.77;;;3.50;99.90;;;;;;10445339;28;20040;-83
2022/11/28 15:18:11;;;;;;;35.17;17.40;;;3.50;99.90;;;;;;10442512;28;20032;-84
2022/11/28 15:23:27;;;;;;;36.47;19.17;;;3.30;99.90;;;;;;10445522;28;20032;-82
2022/11/28 15:28:31;;;;;;;45.87;23.10;;;3.20;99.90;;;;;;10441539;28;20458;-82
2022/11/28 15:33:32;;;;;;;47.70;23.70;;;3.10;99.90;;;;;;10440464;28;20056;-82
2022/11/28 15:38:35;;;;;;;50.33;25.63;;;2.90;99.90;;;;;;10442076;28;20104;-84
2022/11/28 15:43:41;;;;;;;61.93;30.30;;;2.80;99.90;;;;;;10426462;28;21136;-82
2022/11/28 15:48:49;;;;;;;75.53;34.58;;;2.70;99.90;;;;;;10445251;28;20029;-82
2022/11/28 15:53:50;;;;;;;84.50;36.97;;;2.60;99.90;;;;;;10441757;28;20045;-84
2022/11/28 15:58:52;;;;;;;75.80;36.50;;;2.60;99.90;;;;;;10436556;28;20034;-85
2022/11/28 16:04:04;;;;;;;67.43;34.10;;;2.50;99.90;;;;;;10443881;28;20142;-82
2022/11/28 16:09:27;;;;;;;63.17;29.77;;;2.40;99.90;;;;;;10444252;28;20032;-84
2022/11/28 16:14:31;;;;;;;47.17;24.90;;;2.40;99.90;;;;;;10442898;28;20051;-82
2022/11/28 16:19:35;;;;;;;64.07;32.00;;;2.30;99.90;;;;;;10443648;28;20032;-80
2022/11/28 16:24:43;;;;;;;60.97;28.63;;;2.20;99.90;;;;;;10443684;28;20624;-82
2022/11/28 16:29:45;;;;;;;63.77;30.57;;;2.10;99.90;;;;;;10443170;28;20071;-82
2022/11/28 16:34:49;;;;;;;54.27;26.87;;;2.00;99.90;;;;;;10442661;28;20049;-81
2022/11/28 16:40:18;;;;;;;54.63;28.23;;;2.00;99.90;;;;;;10443132;28;20629;-82
2022/11/28 16:45:31;;;;;;;46.63;25.53;;;1.80;99.90;;;;;;10439009;28;20443;-83
2022/11/28 16:50:32;;;;;;;55.93;29.33;;;1.80;99.90;;;;;;10440905;28;20041;-82
2022/11/28 16:55:38;;;;;;;58.90;28.50;;;1.70;99.90;;;;;;10441387;28;20037;-80
2022/11/28 17:00:46;;;;;;;55.10;24.70;;;1.50;99.90;;;;;;10444464;28;20091;-81
2022/11/28 17:05:47;;;;;;;51.37;25.77;;;1.40;99.90;;;;;;10443922;28;20029;-81
2022/11/28 17:10:47;;;;;;;48.83;24.23;;;1.30;99.90;;;;;;10439769;28;20412;-83
2022/11/28 17:15:48;;;;;;;43.90;24.00;;;1.30;99.90;;;;;;10438340;28;20488;-81
2022/11/28 17:20:48;;;;;;;50.53;24.47;;;1.20;99.90;;;;;;10437782;28;20055;-81
2022/11/28 17:25:49;;;;;;;63.13;28.83;;;1.10;99.90;;;;;;10438878;28;20037;-80
2022/11/28 17:30:49;;;;;;;73.10;35.97;;;1.00;99.90;;;;;;10439388;28;20029;-81
2022/11/28 17:35:52;;;;;;;103.93;46.37;;;0.90;99.90;;;;;;10437540;28;20044;-81
2022/11/28 17:40:52;;;;;;;111.43;54.63;;;0.80;99.90;;;;;;10418209;28;20040;-81
2022/11/28 17:45:53;;;;;;;118.83;57.13;;;0.80;99.90;;;;;;10435049;28;20036;-81
2022/11/28 17:50:54;;;;;;;146.67;66.63;;;0.70;99.90;;;;;;10439804;28;20032;-81
2022/11/28 17:55:57;;;;;;;255.40;122.60;;;0.60;99.90;;;;;;10441277;28;20796;-81
2022/11/28 18:00:58;;;;;;;138.17;64.83;;;0.60;99.90;;;;;;10444047;28;20599;-84
2022/11/28 18:06:06;;;;;;;178.87;81.13;;;0.60;99.90;;;;;;10449152;28;20036;-82
2022/11/28 18:11:09;;;;;;;105.07;47.60;;;0.60;99.90;;;;;;10432016;28;20043;-82
2022/11/28 18:16:11;;;;;;;95.80;46.00;;;0.60;99.90;;;;;;10448771;28;20106;-86
2022/11/28 18:21:12;;;;;;;86.30;39.17;;;0.50;99.90;;;;;;10429791;28;20108;-83
2022/11/28 18:26:15;;;;;;;87.80;38.63;;;0.50;99.90;;;;;;10430065;28;20028;-83
2022/11/28 18:31:17;;;;;;;71.07;32.90;;;0.40;99.90;;;;;;10443958;28;20037;-84
2022/11/28 18:36:23;;;;;;;71.93;31.67;;;0.50;99.90;;;;;;10447218;28;20040;-83
2022/11/28 18:41:25;;;;;;;74.45;34.33;;;0.40;99.90;;;;;;10447166;28;20068;-82
2022/11/28 18:46:27;;;;;;;76.30;33.53;;;0.40;99.90;;;;;;10446887;28;20036;-83
2022/11/28 18:51:31;;;;;;;72.70;34.57;;;0.30;99.90;;;;;;10438568;28;20385;-82
2022/11/28 18:56:32;;;;;;;73.50;36.10;;;0.30;99.90;;;;;;10437598;28;20116;-83
2022/11/28 19:01:33;;;;;;;72.63;34.97;;;0.20;99.90;;;;;;10412634;28;20515;-82
2022/11/28 19:06:38;;;;;;;76.27;35.20;;;0.10;99.90;;;;;;10442300;28;20686;-82
2022/11/28 19:11:39;;;;;;;99.30;43.27;;;0.10;99.90;;;;;;10441081;28;20022;-81
2022/11/28 19:16:39;;;;;;;87.27;41.90;;;0.10;99.90;;;;;;10444357;28;20043;-82
2022/11/28 19:21:40;;;;;;;122.10;51.83;;;0.10;99.90;;;;;;10444388;28;20748;-81
2022/11/28 19:26:41;;;;;;;122.47;56.37;;;0.10;99.90;;;;;;10445498;28;20470;-80
2022/11/28 19:31:41;;;;;;;120.20;53.93;;;0.20;99.90;;;;;;10425702;28;20140;-80
2022/11/28 19:36:47;;;;;;;101.93;50.23;;;0.10;99.90;;;;;;10443356;28;20033;-84
2022/11/28 19:41:48;;;;;;;98.25;44.95;;;0.00;99.90;;;;;;10442083;28;20033;-83
2022/11/28 19:46:49;;;;;;;92.73;41.37;;;0.00;99.90;;;;;;10442227;28;20465;-82
2022/11/28 19:51:50;;;;;;;96.60;40.80;;;0.00;99.90;;;;;;10443574;28;20074;-82
2022/11/28 19:56:51;;;;;;;81.73;40.07;;;-0.10;99.90;;;;;;10442792;28;20048;-81
2022/11/28 20:01:52;;;;;;;93.10;41.63;;;-0.10;99.90;;;;;;10442344;28;20060;-81
2022/11/28 20:06:53;;;;;;;90.97;41.27;;;-0.10;99.90;;;;;;10441345;28;20037;-85
2022/11/28 20:11:53;;;;;;;82.77;38.17;;;-0.20;99.90;;;;;;10440535;28;20427;-81
2022/11/28 20:16:54;;;;;;;78.90;36.00;;;-0.20;99.90;;;;;;10431169;28;20090;-81
2022/11/28 20:21:56;;;;;;;80.80;37.70;;;-0.20;99.90;;;;;;10442268;28;20476;-80
2022/11/28 20:26:57;;;;;;;87.53;40.23;;;-0.20;99.90;;;;;;10442903;28;20846;-81
2022/11/28 20:31:57;;;;;;;90.10;40.77;;;-0.20;99.90;;;;;;10442949;28;20044;-84
2022/11/28 20:36:58;;;;;;;91.03;44.10;;;-0.20;99.90;;;;;;10442084;28;20045;-81
2022/11/28 20:41:58;;;;;;;104.20;50.40;;;-0.30;99.90;;;;;;10438882;28;20509;-81
2022/11/28 20:46:59;;;;;;;152.23;63.23;;;-0.30;99.90;;;;;;10441703;28;20492;-81
2022/11/28 20:52:00;;;;;;;174.33;72.70;;;-0.40;99.90;;;;;;10442815;28;20039;-81
2022/11/28 20:57:00;;;;;;;218.37;85.23;;;-0.40;99.90;;;;;;10440112;28;20040;-85
2022/11/28 21:02:01;;;;;;;259.90;103.97;;;-0.50;99.90;;;;;;10440437;28;20057;-82
2022/11/28 21:07:01;;;;;;;177.93;74.13;;;-0.60;99.90;;;;;;10441047;28;20021;-83
2022/11/28 21:12:02;;;;;;;142.67;60.40;;;-0.60;99.90;;;;;;10441282;28;20110;-84
2022/11/28 21:17:02;;;;;;;123.77;55.57;;;-0.60;99.90;;;;;;10441475;28;20048;-81
2022/11/28 21:22:03;;;;;;;117.47;52.60;;;-0.60;99.90;;;;;;10440841;28;20075;-82
2022/11/28 21:27:03;;;;;;;112.73;53.40;;;-0.60;99.90;;;;;;10422690;28;20424;-81
2022/11/28 21:32:04;;;;;;;122.20;55.70;;;-0.60;99.90;;;;;;10446413;28;20487;-82
2022/11/28 21:37:04;;;;;;;130.77;58.50;;;-0.60;99.90;;;;;;10436837;28;20047;-81
2022/11/28 21:42:06;;;;;;;129.23;59.53;;;-0.50;99.90;;;;;;10448440;28;20064;-83
2022/11/28 21:47:08;;;;;;;129.00;57.93;;;-0.60;99.90;;;;;;10449001;28;20044;-82
2022/11/28 21:52:10;;;;;;;108.53;49.63;;;-0.50;99.90;;;;;;10431058;28;20033;-82
2022/11/28 21:57:10;;;;;;;113.07;52.33;;;-0.60;99.90;;;;;;10448378;28;20045;-82
2022/11/28 22:02:14;;;;;;;121.40;51.37;;;-0.60;99.90;;;;;;10448942;28;20810;-81
2022/11/28 22:07:15;;;;;;;113.53;51.13;;;-0.70;99.90;;;;;;10448905;28;20048;-82
2022/11/28 22:12:15;;;;;;;108.50;49.33;;;-0.70;99.90;;;;;;10447721;28;20511;-81
2022/11/28 22:17:16;;;;;;;114.20;45.97;;;-0.70;99.90;;;;;;10447704;28;20049;-82
2022/11/28 22:22:16;;;;;;;107.40;46.60;;;-0.80;99.90;;;;;;10448184;28;20367;-82
2022/11/28 22:27:17;;;;;;;116.67;53.17;;;-0.80;99.90;;;;;;10448133;28;20037;-82
2022/11/28 22:32:17;;;;;;;128.70;55.03;;;-0.80;99.90;;;;;;10447209;28;20043;-81
2022/11/28 22:37:18;;;;;;;122.80;55.80;;;-0.90;99.90;;;;;;10447390;28;20126;-82
2022/11/28 22:42:18;;;;;;;108.73;50.27;;;-0.90;99.90;;;;;;10446972;28;20436;-81
2022/11/28 22:47:19;;;;;;;106.50;46.60;;;-1.00;99.90;;;;;;10447570;28;20021;-84
2022/11/28 22:52:20;;;;;;;108.17;51.10;;;-0.90;99.90;;;;;;10447630;28;20029;-81
2022/11/28 22:57:20;;;;;;;101.17;47.43;;;-1.00;99.90;;;;;;10447464;28;20408;-82
2022/11/28 23:02:21;;;;;;;106.93;48.67;;;-1.10;99.90;;;;;;10428908;28;20049;-83
2022/11/28 23:07:22;;;;;;;102.10;48.03;;;-1.10;99.90;;;;;;10447575;28;20110;-81
2022/11/28 23:12:22;;;;;;;94.70;44.97;;;-1.10;99.90;;;;;;10428386;28;20574;-82
2022/11/28 23:17:23;;;;;;;102.87;49.43;;;-1.10;99.90;;;;;;10446421;28;20091;-81
2022/11/28 23:22:23;;;;;;;97.07;46.33;;;-1.10;99.90;;;;;;10447155;28;20032;-83
2022/11/28 23:27:24;;;;;;;92.93;43.93;;;-1.10;99.90;;;;;;10446714;28;20652;-81
2022/11/28 23:32:24;;;;;;;101.37;47.50;;;-1.20;99.90;;;;;;10421186;28;20063;-85
2022/11/28 23:37:25;;;;;;;96.43;45.93;;;-1.20;99.90;;;;;;10441526;28;20066;-82
2022/11/28 23:42:25;;;;;;;93.93;44.63;;;-1.20;99.90;;;;;;10445661;28;20811;-82
2022/11/28 23:47:26;;;;;;;112.70;50.07;;;-1.30;99.90;;;;;;10446354;28;20028;-80
2022/11/28 23:52:27;;;;;;;115.47;51.30;;;-1.30;99.90;;;;;;10444641;28;20659;-81
2022/11/28 23:57:27;;;;;;;120.47;55.60;;;-1.40;99.90;;;;;;10446040;28;20045;-82
